Aérodrome :
LOGIN :

S'inscrire | Disclaimer

   EN    FR    IT 

 










Légende :    VFR   VFR Marginal   IFR   IFR Intensif   IFR Très Intensif
Visi : 
Plafond : 
>= 8 km
>= 3000ft
5 à 8 km
1000 à 3000 ft
1500m à 5 km
500 à 1000 ft
800 à 1500m
200 à 500 ft
< 800m
< 200 ft
Symboles :   Orages  Brouillard  Fortes neiges  Fortes précipitations  Vent > 20 kt
SIGMETs :   Divers  Orages  Givrage  Turbulence  Onde Orograph.  Cendres Volcan.







- Altitude de l'aérodrome : 245 ft
- Code IATA : BIQ
- Voir les cartes d'approche


LFBZ - Biarritz

DERNIER METAR :
  • 181830Z AUTO 21008KT 170V270 9999 -RADZ BKN064 OVC082 13/02 Q1016 TEMPO 19015G25KT 4000 -RA

METARs EXPIRÉS :
  • 181800Z AUTO 19008KT 120V230 CAVOK 15/M02 Q1015 TEMPO 19015G25KT
  • 181730Z AUTO 19009KT 150V240 CAVOK 15/M03 Q1014 TEMPO 19015G25KT
  • 181700Z AUTO 19009KT 150V240 CAVOK 15/M02 Q1014 TEMPO 19015G30KT
  • 181630Z AUTO 20013G27KT 150V230 9999 -RA ///TCU 14/00 Q1014 BECMG NSC
  • 181600Z AUTO 19009G21KT 110V260 CAVOK 15/M03 Q1013 NOSIG

TAF TAF LFBZ
Valide du 18 à 18h jusqu'au 19 à 18h UTC


181700Z 1818/1918 19010KT CAVOK
TEMPO 1818/1820 19015G25KT
FM182000 24010KT 9999 BKN050
PROB40
TEMPO 1820/1901 4000 -RA
BECMG 1901/1903 17006KT CAVOK
BECMG 1910/1912 25015G25KT
TEMPO 1914/1916 28015G35KT SCT035TCU
Pas de NOTAMs connus pour ce terrain.
4 SIGMETs publiés pour la FIR Bordeaux (LFBB) :
 
Turbulence forte
LFBB SIGMET 9 VALID 181900/182200 LFPW
LFBB BORDEAUX FIR/UIR SEV TURB FCST WI N4230 E00030 - N4300 W00145 - N4330 W00145 - N4300 E00045 - N4230 E00030 SFC/FL080 STNR WKN=
Givrage fort
LFBB SIGMET 8 VALID 181715/181900 LFPW
LFBB BORDEAUX FIR/UIR SEV ICE OBS WI N4245 W00045 - N4300 W00130 - N4615 W00045 - N4615 E00015 - N4245 W00045 FL140/240 MOV NE 30KT NC=
Turbulence forte
LFBB SIGMET 7 VALID 181600/182000 LFPW
LFBB BORDEAUX FIR/UIR SEV TURB FCST WI N4500 E00245 - N4300 E00230 - N4330 E00115 - N4345 E00130 - N4345 E00200 - N4500 E00245 SFC/FL060 STNR WKN=
Turbulence forte
LFBB SIGMET 6 VALID 181600/181900 LFPW
LFBB BORDEAUX FIR/UIR SEV TURB FCST WI N4230 E00030 - N4300 W00145 - N4330 W00145 - N4300 E00045 - N4230 E00030 SFC/FL120 STNR WKN=



MET'MAP, la Météo Aéronautique d'un coup d'oeil ! - Copyright ORBIFLY Décembre 2007 - Disclaimer

ORBIFLY MET'MAP TEAM :

Programmation & Développement : Alexandra Zaïnal
Conception & Développement : Baudouin d'Aumeries
Co-Programmation & Développement : Marc-Olivier Méhu
Soutien technique & logistique : Manuel Goepfert

Contact : metmap@orbifly.com




SOURCES & CREDITS :

   NOAA